sensor_id;sensor_type;location;lat;lon;timestamp;pressure;altitude;pressure_sealevel;temperature;humidity
19751;BME280;4663;49.120;9.730;2023-03-22T00:00:26;97898.66;;;5.01;88.06
19751;BME280;4663;49.120;9.730;2023-03-22T00:02:54;97903.31;;;4.80;89.16
19751;BME280;4663;49.120;9.730;2023-03-22T00:05:20;97909.66;;;4.79;89.55
19751;BME280;4663;49.120;9.730;2023-03-22T00:07:45;97909.88;;;4.68;90.33
19751;BME280;4663;49.120;9.730;2023-03-22T00:10:15;97905.44;;;4.77;89.76
19751;BME280;4663;49.120;9.730;2023-03-22T00:12:40;97905.34;;;4.68;90.82
19751;BME280;4663;49.120;9.730;2023-03-22T00:15:06;97902.69;;;4.86;90.41
19751;BME280;4663;49.120;9.730;2023-03-22T00:17:32;97896.97;;;4.99;89.29
19751;BME280;4663;49.120;9.730;2023-03-22T00:19:57;97893.31;;;5.19;88.89
19751;BME280;4663;49.120;9.730;2023-03-22T00:22:23;97890.16;;;5.23;87.97
19751;BME280;4663;49.120;9.730;2023-03-22T00:24:49;97889.59;;;5.11;87.80
19751;BME280;4663;49.120;9.730;2023-03-22T00:27:14;97881.59;;;4.83;89.01
19751;BME280;4663;49.120;9.730;2023-03-22T00:29:40;97884.50;;;4.90;89.21
19751;BME280;4663;49.120;9.730;2023-03-22T00:32:06;97883.53;;;5.09;88.12
19751;BME280;4663;49.120;9.730;2023-03-22T00:34:32;97887.25;;;4.98;87.21
19751;BME280;4663;49.120;9.730;2023-03-22T00:36:57;97884.22;;;4.93;89.17
19751;BME280;4663;49.120;9.730;2023-03-22T00:39:23;97884.59;;;4.98;88.18
19751;BME280;4663;49.120;9.730;2023-03-22T00:41:48;97883.28;;;4.66;89.21
19751;BME280;4663;49.120;9.730;2023-03-22T00:44:15;97891.06;;;4.59;89.40
19751;BME280;4663;49.120;9.730;2023-03-22T00:46:40;97886.88;;;4.57;89.78
19751;BME280;4663;49.120;9.730;2023-03-22T00:49:05;97890.13;;;4.51;90.22
19751;BME280;4663;49.120;9.730;2023-03-22T00:51:31;97876.81;;;4.41;90.00
19751;BME280;4663;49.120;9.730;2023-03-22T00:53:56;97876.63;;;4.24;90.98
19751;BME280;4663;49.120;9.730;2023-03-22T00:56:22;97870.81;;;4.29;90.74
19751;BME280;4663;49.120;9.730;2023-03-22T00:58:49;97866.38;;;4.19;90.44
19751;BME280;4663;49.120;9.730;2023-03-22T01:01:15;97862.91;;;4.09;90.10
19751;BME280;4663;49.120;9.730;2023-03-22T01:03:41;97865.69;;;3.89;91.13
19751;BME280;4663;49.120;9.730;2023-03-22T01:06:08;97850.88;;;3.95;90.94
19751;BME280;4663;49.120;9.730;2023-03-22T01:08:33;97854.00;;;3.90;90.69
19751;BME280;4663;49.120;9.730;2023-03-22T01:11:03;97854.00;;;3.90;90.57
19751;BME280;4663;49.120;9.730;2023-03-22T01:13:29;97852.41;;;3.69;91.41
19751;BME280;4663;49.120;9.730;2023-03-22T01:15:55;97853.44;;;3.49;91.76
19751;BME280;4663;49.120;9.730;2023-03-22T01:18:20;97845.84;;;3.54;92.68
19751;BME280;4663;49.120;9.730;2023-03-22T01:20:45;97838.34;;;3.67;90.70
19751;BME280;4663;49.120;9.730;2023-03-22T01:23:11;97838.50;;;3.56;90.78
19751;BME280;4663;49.120;9.730;2023-03-22T01:25:36;97841.59;;;3.41;92.22
19751;BME280;4663;49.120;9.730;2023-03-22T01:28:02;97843.88;;;3.46;91.76
19751;BME280;4663;49.120;9.730;2023-03-22T01:30:28;97841.78;;;3.50;91.91
19751;BME280;4663;49.120;9.730;2023-03-22T01:32:53;97836.25;;;3.41;92.26
19751;BME280;4663;49.120;9.730;2023-03-22T01:35:19;97834.88;;;3.37;91.36
19751;BME280;4663;49.120;9.730;2023-03-22T01:37:44;97832.63;;;3.42;91.31
19751;BME280;4663;49.120;9.730;2023-03-22T01:40:11;97838.25;;;3.39;91.33
19751;BME280;4663;49.120;9.730;2023-03-22T01:42:38;97840.50;;;3.54;89.69
19751;BME280;4663;49.120;9.730;2023-03-22T01:47:55;97825.94;;;3.18;91.02
19751;BME280;4663;49.120;9.730;2023-03-22T01:50:23;97826.53;;;3.02;91.39
19751;BME280;4663;49.120;9.730;2023-03-22T01:52:51;97828.06;;;3.05;91.81
19751;BME280;4663;49.120;9.730;2023-03-22T01:55:17;97833.25;;;3.06;91.35
19751;BME280;4663;49.120;9.730;2023-03-22T01:57:46;97827.63;;;3.19;90.03
19751;BME280;4663;49.120;9.730;2023-03-22T02:00:13;97824.25;;;3.08;90.17
19751;BME280;4663;49.120;9.730;2023-03-22T02:02:44;97829.06;;;2.84;91.52
19751;BME280;4663;49.120;9.730;2023-03-22T02:05:10;97826.78;;;2.99;91.36
19751;BME280;4663;49.120;9.730;2023-03-22T02:07:38;97827.38;;;2.83;92.07
19751;BME280;4663;49.120;9.730;2023-03-22T02:10:17;97826.53;;;2.83;92.33
19751;BME280;4663;49.120;9.730;2023-03-22T02:15:51;97819.25;;;2.85;90.75
19751;BME280;4663;49.120;9.730;2023-03-22T02:21:41;97808.59;;;2.65;91.64
19751;BME280;4663;49.120;9.730;2023-03-22T02:30:15;97804.63;;;2.30;93.51
19751;BME280;4663;49.120;9.730;2023-03-22T02:35:57;97795.63;;;2.21;92.82
19751;BME280;4663;49.120;9.730;2023-03-22T02:41:16;97799.56;;;2.17;93.44
19751;BME280;4663;49.120;9.730;2023-03-22T02:49:36;97794.53;;;2.53;92.36
19751;BME280;4663;49.120;9.730;2023-03-22T02:52:16;97801.69;;;2.23;92.54
19751;BME280;4663;49.120;9.730;2023-03-22T02:54:49;97803.59;;;2.01;92.95
19751;BME280;4663;49.120;9.730;2023-03-22T02:57:33;97800.09;;;2.00;93.75
19751;BME280;4663;49.120;9.730;2023-03-22T03:00:02;97793.94;;;2.10;92.86
19751;BME280;4663;49.120;9.730;2023-03-22T03:02:33;97792.69;;;2.14;92.07
19751;BME280;4663;49.120;9.730;2023-03-22T03:04:59;97790.56;;;2.18;91.07
19751;BME280;4663;49.120;9.730;2023-03-22T03:07:26;97800.16;;;1.79;92.73
19751;BME280;4663;49.120;9.730;2023-03-22T03:09:53;97794.09;;;1.67;93.06
19751;BME280;4663;49.120;9.730;2023-03-22T03:12:19;97799.44;;;1.77;93.50
19751;BME280;4663;49.120;9.730;2023-03-22T03:14:46;97787.56;;;1.91;92.28
19751;BME280;4663;49.120;9.730;2023-03-22T03:27:41;97790.28;;;2.01;90.69
19751;BME280;4663;49.120;9.730;2023-03-22T03:30:17;97798.84;;;1.63;92.66
19751;BME280;4663;49.120;9.730;2023-03-22T03:32:52;97808.78;;;1.61;93.76
19751;BME280;4663;49.120;9.730;2023-03-22T03:35:27;97801.59;;;1.83;93.05
19751;BME280;4663;49.120;9.730;2023-03-22T03:38:03;97809.44;;;1.85;92.56
19751;BME280;4663;49.120;9.730;2023-03-22T03:40:34;97804.13;;;1.85;91.85
19751;BME280;4663;49.120;9.730;2023-03-22T03:43:02;97799.72;;;1.74;93.67
19751;BME280;4663;49.120;9.730;2023-03-22T03:45:29;97809.69;;;1.82;92.01
19751;BME280;4663;49.120;9.730;2023-03-22T03:47:58;97811.38;;;1.83;91.20
19751;BME280;4663;49.120;9.730;2023-03-22T03:50:25;97810.06;;;1.67;92.41
19751;BME280;4663;49.120;9.730;2023-03-22T03:52:52;97805.00;;;1.64;92.53
19751;BME280;4663;49.120;9.730;2023-03-22T03:55:19;97807.16;;;1.80;92.20
19751;BME280;4663;49.120;9.730;2023-03-22T03:57:44;97813.97;;;1.42;94.02
19751;BME280;4663;49.120;9.730;2023-03-22T04:00:10;97816.22;;;1.68;94.23
19751;BME280;4663;49.120;9.730;2023-03-22T04:02:39;97817.34;;;1.44;95.33
19751;BME280;4663;49.120;9.730;2023-03-22T04:05:04;97815.38;;;1.46;94.50
19751;BME280;4663;49.120;9.730;2023-03-22T04:07:31;97819.13;;;1.55;93.99
19751;BME280;4663;49.120;9.730;2023-03-22T04:09:56;97805.72;;;1.66;92.39
19751;BME280;4663;49.120;9.730;2023-03-22T04:12:22;97799.97;;;1.61;92.39
19751;BME280;4663;49.120;9.730;2023-03-22T04:14:47;97806.13;;;1.61;92.14
19751;BME280;4663;49.120;9.730;2023-03-22T04:17:12;97807.63;;;1.54;92.36
19751;BME280;4663;49.120;9.730;2023-03-22T04:19:38;97809.38;;;1.44;91.98
19751;BME280;4663;49.120;9.730;2023-03-22T04:22:03;97801.53;;;1.42;92.74
19751;BME280;4663;49.120;9.730;2023-03-22T04:24:28;97794.19;;;1.34;92.25
19751;BME280;4663;49.120;9.730;2023-03-22T04:26:54;97798.09;;;1.30;93.44
19751;BME280;4663;49.120;9.730;2023-03-22T04:29:19;97804.69;;;1.36;93.33
19751;BME280;4663;49.120;9.730;2023-03-22T04:31:46;97797.38;;;1.28;93.27
19751;BME280;4663;49.120;9.730;2023-03-22T04:34:11;97792.75;;;1.30;92.26
19751;BME280;4663;49.120;9.730;2023-03-22T04:36:37;97798.06;;;1.51;92.21
19751;BME280;4663;49.120;9.730;2023-03-22T04:39:09;97798.75;;;1.22;92.43
19751;BME280;4663;49.120;9.730;2023-03-22T04:41:34;97796.66;;;1.26;93.33
19751;BME280;4663;49.120;9.730;2023-03-22T04:44:01;97790.22;;;1.29;93.04
19751;BME280;4663;49.120;9.730;2023-03-22T04:46:27;97788.34;;;1.41;91.57
19751;BME280;4663;49.120;9.730;2023-03-22T04:48:52;97790.03;;;1.42;90.76
19751;BME280;4663;49.120;9.730;2023-03-22T04:51:17;97787.81;;;1.47;90.87
19751;BME280;4663;49.120;9.730;2023-03-22T04:53:43;97791.63;;;1.23;91.67
19751;BME280;4663;49.120;9.730;2023-03-22T04:56:11;97784.59;;;1.22;91.59
19751;BME280;4663;49.120;9.730;2023-03-22T04:58:38;97788.69;;;1.26;91.65
19751;BME280;4663;49.120;9.730;2023-03-22T05:01:04;97784.09;;;1.28;91.09
19751;BME280;4663;49.120;9.730;2023-03-22T05:03:31;97786.81;;;1.17;92.01
19751;BME280;4663;49.120;9.730;2023-03-22T05:05:58;97780.59;;;1.06;91.58
19751;BME280;4663;49.120;9.730;2023-03-22T05:08:26;97776.78;;;0.99;91.89
19751;BME280;4663;49.120;9.730;2023-03-22T05:10:53;97777.56;;;0.90;92.18
19751;BME280;4663;49.120;9.730;2023-03-22T05:13:20;97771.19;;;0.81;92.56
19751;BME280;4663;49.120;9.730;2023-03-22T05:15:46;97771.81;;;0.84;93.30
19751;BME280;4663;49.120;9.730;2023-03-22T05:18:14;97771.53;;;0.88;92.37
19751;BME280;4663;49.120;9.730;2023-03-22T05:20:40;97775.81;;;0.79;93.23
19751;BME280;4663;49.120;9.730;2023-03-22T05:23:05;97760.19;;;0.85;92.62
19751;BME280;4663;49.120;9.730;2023-03-22T05:25:31;97767.38;;;0.95;91.81
19751;BME280;4663;49.120;9.730;2023-03-22T05:27:57;97765.50;;;0.85;92.42
19751;BME280;4663;49.120;9.730;2023-03-22T05:30:27;97756.28;;;0.90;92.39
19751;BME280;4663;49.120;9.730;2023-03-22T05:32:57;97761.72;;;1.09;91.51
19751;BME280;4663;49.120;9.730;2023-03-22T05:35:24;97751.28;;;1.18;90.71
19751;BME280;4663;49.120;9.730;2023-03-22T05:37:49;97750.03;;;1.22;89.88
19751;BME280;4663;49.120;9.730;2023-03-22T05:40:16;97750.72;;;1.14;89.99
19751;BME280;4663;49.120;9.730;2023-03-22T05:42:43;97750.84;;;1.12;90.82
19751;BME280;4663;49.120;9.730;2023-03-22T05:45:09;97761.22;;;1.16;90.79
19751;BME280;4663;49.120;9.730;2023-03-22T05:47:34;97766.06;;;1.10;91.50
19751;BME280;4663;49.120;9.730;2023-03-22T05:50:01;97766.09;;;1.42;90.88
19751;BME280;4663;49.120;9.730;2023-03-22T05:52:26;97759.84;;;1.21;90.73
19751;BME280;4663;49.120;9.730;2023-03-22T05:54:51;97764.88;;;1.24;91.34
19751;BME280;4663;49.120;9.730;2023-03-22T05:57:17;97756.34;;;1.21;91.11
19751;BME280;4663;49.120;9.730;2023-03-22T05:59:42;97757.56;;;1.17;91.06
19751;BME280;4663;49.120;9.730;2023-03-22T06:02:07;97761.41;;;1.24;91.59
19751;BME280;4663;49.120;9.730;2023-03-22T06:04:33;97760.06;;;1.40;90.66
19751;BME280;4663;49.120;9.730;2023-03-22T06:06:58;97756.41;;;1.41;90.36
19751;BME280;4663;49.120;9.730;2023-03-22T06:09:23;97750.91;;;1.54;89.88
19751;BME280;4663;49.120;9.730;2023-03-22T06:11:49;97751.63;;;1.66;88.84
19751;BME280;4663;49.120;9.730;2023-03-22T06:14:15;97757.97;;;1.74;88.99
19751;BME280;4663;49.120;9.730;2023-03-22T06:16:41;97756.47;;;1.82;89.12
19751;BME280;4663;49.120;9.730;2023-03-22T06:19:07;97758.53;;;1.78;90.30
19751;BME280;4663;49.120;9.730;2023-03-22T06:21:32;97762.44;;;1.74;90.76
19751;BME280;4663;49.120;9.730;2023-03-22T06:23:57;97766.97;;;1.52;92.10
19751;BME280;4663;49.120;9.730;2023-03-22T06:26:23;97763.53;;;1.61;91.75
19751;BME280;4663;49.120;9.730;2023-03-22T06:28:48;97771.63;;;1.60;91.65
19751;BME280;4663;49.120;9.730;2023-03-22T06:31:13;97773.38;;;1.71;92.07
19751;BME280;4663;49.120;9.730;2023-03-22T06:33:39;97782.66;;;1.86;91.31
19751;BME280;4663;49.120;9.730;2023-03-22T06:36:05;97776.25;;;1.99;90.89
19751;BME280;4663;49.120;9.730;2023-03-22T06:38:30;97787.09;;;2.27;89.87
19751;BME280;4663;49.120;9.730;2023-03-22T06:40:56;97776.00;;;2.41;89.50
19751;BME280;4663;49.120;9.730;2023-03-22T06:43:21;97779.41;;;2.63;89.61
19751;BME280;4663;49.120;9.730;2023-03-22T06:45:47;97779.66;;;2.80;88.64
19751;BME280;4663;49.120;9.730;2023-03-22T06:48:12;97778.22;;;3.05;87.93
19751;BME280;4663;49.120;9.730;2023-03-22T06:50:39;97784.69;;;3.13;87.31
19751;BME280;4663;49.120;9.730;2023-03-22T06:53:07;97789.19;;;3.02;88.19
19751;BME280;4663;49.120;9.730;2023-03-22T06:55:32;97784.59;;;3.42;88.21
19751;BME280;4663;49.120;9.730;2023-03-22T06:57:59;97786.94;;;3.93;87.05
19751;BME280;4663;49.120;9.730;2023-03-22T07:00:25;97791.13;;;4.42;85.93
19751;BME280;4663;49.120;9.730;2023-03-22T07:02:51;97781.78;;;4.83;86.08
19751;BME280;4663;49.120;9.730;2023-03-22T07:05:16;97786.44;;;5.17;85.25
19751;BME280;4663;49.120;9.730;2023-03-22T07:07:42;97776.44;;;5.28;82.25
19751;BME280;4663;49.120;9.730;2023-03-22T07:10:07;97771.31;;;5.69;82.79
19751;BME280;4663;49.120;9.730;2023-03-22T07:12:34;97780.91;;;6.40;82.60
19751;BME280;4663;49.120;9.730;2023-03-22T07:14:59;97773.25;;;6.87;80.91
19751;BME280;4663;49.120;9.730;2023-03-22T07:17:25;97777.22;;;7.41;80.15
19751;BME280;4663;49.120;9.730;2023-03-22T07:19:50;97775.22;;;7.91;78.59
19751;BME280;4663;49.120;9.730;2023-03-22T07:22:16;97771.56;;;8.24;77.23
19751;BME280;4663;49.120;9.730;2023-03-22T07:24:41;97763.09;;;8.82;76.45
19751;BME280;4663;49.120;9.730;2023-03-22T07:27:07;97765.59;;;9.07;74.36
19751;BME280;4663;49.120;9.730;2023-03-22T07:29:32;97765.53;;;9.46;73.50
19751;BME280;4663;49.120;9.730;2023-03-22T07:31:57;97772.09;;;9.88;74.04
19751;BME280;4663;49.120;9.730;2023-03-22T07:34:23;97768.47;;;10.11;71.95
19751;BME280;4663;49.120;9.730;2023-03-22T07:36:48;97748.03;;;10.02;69.33
19751;BME280;4663;49.120;9.730;2023-03-22T07:39:14;97759.94;;;10.67;69.48
19751;BME280;4663;49.120;9.730;2023-03-22T07:41:39;97758.44;;;10.42;68.51
19751;BME280;4663;49.120;9.730;2023-03-22T07:44:05;97758.44;;;10.86;69.37
19751;BME280;4663;49.120;9.730;2023-03-22T07:46:31;97755.06;;;11.27;67.87
19751;BME280;4663;49.120;9.730;2023-03-22T07:48:56;97754.72;;;11.37;66.90
19751;BME280;4663;49.120;9.730;2023-03-22T07:51:22;97759.00;;;11.60;66.58
19751;BME280;4663;49.120;9.730;2023-03-22T07:53:47;97761.97;;;11.72;65.50
19751;BME280;4663;49.120;9.730;2023-03-22T07:56:13;97757.66;;;12.27;64.61
19751;BME280;4663;49.120;9.730;2023-03-22T07:58:38;97751.50;;;12.04;63.26
19751;BME280;4663;49.120;9.730;2023-03-22T08:01:06;97749.81;;;12.59;63.16
19751;BME280;4663;49.120;9.730;2023-03-22T08:03:35;97765.34;;;12.23;64.44
19751;BME280;4663;49.120;9.730;2023-03-22T08:06:02;97761.09;;;12.90;63.39
19751;BME280;4663;49.120;9.730;2023-03-22T08:08:32;97745.81;;;12.35;61.12
19751;BME280;4663;49.120;9.730;2023-03-22T08:10:57;97748.16;;;12.65;61.45
19751;BME280;4663;49.120;9.730;2023-03-22T08:13:22;97743.38;;;12.60;61.55
19751;BME280;4663;49.120;9.730;2023-03-22T08:15:48;97735.28;;;13.28;59.62
19751;BME280;4663;49.120;9.730;2023-03-22T08:18:13;97761.88;;;13.58;60.59
19751;BME280;4663;49.120;9.730;2023-03-22T08:20:39;97737.34;;;13.19;59.10
19751;BME280;4663;49.120;9.730;2023-03-22T08:23:05;97749.66;;;13.21;58.88
19751;BME280;4663;49.120;9.730;2023-03-22T08:25:32;97745.88;;;13.43;58.35
19751;BME280;4663;49.120;9.730;2023-03-22T08:27:58;97765.06;;;14.14;59.27
19751;BME280;4663;49.120;9.730;2023-03-22T08:30:23;97718.97;;;13.41;56.45
19751;BME280;4663;49.120;9.730;2023-03-22T08:32:49;97750.97;;;13.92;58.57
19751;BME280;4663;49.120;9.730;2023-03-22T08:35:14;97726.25;;;14.14;56.27
19751;BME280;4663;49.120;9.730;2023-03-22T08:37:40;97742.22;;;13.76;57.54
19751;BME280;4663;49.120;9.730;2023-03-22T08:40:07;97730.78;;;13.60;57.15
19751;BME280;4663;49.120;9.730;2023-03-22T08:42:34;97740.38;;;13.70;57.76
19751;BME280;4663;49.120;9.730;2023-03-22T08:45:00;97745.34;;;13.80;57.37
19751;BME280;4663;49.120;9.730;2023-03-22T08:47:25;97765.72;;;14.03;58.36
19751;BME280;4663;49.120;9.730;2023-03-22T08:49:51;97749.97;;;13.72;57.83
19751;BME280;4663;49.120;9.730;2023-03-22T08:52:16;97738.47;;;13.84;57.28
19751;BME280;4663;49.120;9.730;2023-03-22T08:54:41;97752.16;;;14.09;57.94
19751;BME280;4663;49.120;9.730;2023-03-22T08:57:07;97728.78;;;14.41;55.96
19751;BME280;4663;49.120;9.730;2023-03-22T08:59:34;97717.91;;;14.47;54.88
19751;BME280;4663;49.120;9.730;2023-03-22T09:01:59;97730.78;;;15.35;54.96
19751;BME280;4663;49.120;9.730;2023-03-22T09:04:25;97725.69;;;14.37;55.45
19751;BME280;4663;49.120;9.730;2023-03-22T09:06:51;97724.28;;;14.92;56.12
19751;BME280;4663;49.120;9.730;2023-03-22T09:09:16;97718.34;;;15.02;55.74
19751;BME280;4663;49.120;9.730;2023-03-22T09:11:42;97722.13;;;15.26;54.84
19751;BME280;4663;49.120;9.730;2023-03-22T09:14:10;97711.38;;;15.32;55.02
19751;BME280;4663;49.120;9.730;2023-03-22T09:16:35;97725.50;;;14.96;55.87
19751;BME280;4663;49.120;9.730;2023-03-22T09:19:01;97720.06;;;14.96;55.34
19751;BME280;4663;49.120;9.730;2023-03-22T09:21:28;97693.78;;;14.90;53.98
19751;BME280;4663;49.120;9.730;2023-03-22T09:23:56;97730.47;;;15.69;56.80
19751;BME280;4663;49.120;9.730;2023-03-22T09:26:21;97711.78;;;15.10;55.02
19751;BME280;4663;49.120;9.730;2023-03-22T09:28:48;97706.06;;;15.62;54.61
19751;BME280;4663;49.120;9.730;2023-03-22T09:31:14;97702.13;;;15.14;54.29
19751;BME280;4663;49.120;9.730;2023-03-22T09:33:40;97682.47;;;15.37;52.60
19751;BME280;4663;49.120;9.730;2023-03-22T09:36:07;97704.41;;;15.80;54.91
19751;BME280;4663;49.120;9.730;2023-03-22T09:38:32;97717.16;;;15.98;54.81
19751;BME280;4663;49.120;9.730;2023-03-22T09:41:02;97716.19;;;16.42;54.41
19751;BME280;4663;49.120;9.730;2023-03-22T09:43:35;97679.50;;;16.56;52.39
19751;BME280;4663;49.120;9.730;2023-03-22T09:46:04;97692.03;;;16.15;53.20
19751;BME280;4663;49.120;9.730;2023-03-22T09:48:34;97686.25;;;16.23;52.88
19751;BME280;4663;49.120;9.730;2023-03-22T09:51:03;97662.28;;;15.45;52.07
19751;BME280;4663;49.120;9.730;2023-03-22T09:53:30;97691.56;;;16.18;53.45
19751;BME280;4663;49.120;9.730;2023-03-22T09:56:22;97708.00;;;16.42;55.12
19751;BME280;4663;49.120;9.730;2023-03-22T09:59:24;97685.47;;;16.77;52.66
19751;BME280;4663;49.120;9.730;2023-03-22T10:02:03;97692.78;;;15.73;54.17
19751;BME280;4663;49.120;9.730;2023-03-22T10:04:40;97678.03;;;15.43;54.18
19751;BME280;4663;49.120;9.730;2023-03-22T10:12:42;97681.63;;;15.93;54.40
19751;BME280;4663;49.120;9.730;2023-03-22T10:15:37;97684.25;;;16.73;53.71
19751;BME280;4663;49.120;9.730;2023-03-22T10:18:07;97652.59;;;16.36;52.50
19751;BME280;4663;49.120;9.730;2023-03-22T10:21:20;97640.28;;;16.15;51.60
19751;BME280;4663;49.120;9.730;2023-03-22T10:26:00;97648.09;;;16.42;52.06
19751;BME280;4663;49.120;9.730;2023-03-22T10:28:33;97645.00;;;16.08;52.32
19751;BME280;4663;49.120;9.730;2023-03-22T10:31:01;97655.97;;;15.70;53.02
19751;BME280;4663;49.120;9.730;2023-03-22T10:33:45;97663.72;;;15.48;54.17
19751;BME280;4663;49.120;9.730;2023-03-22T10:36:19;97639.13;;;15.80;53.10
19751;BME280;4663;49.120;9.730;2023-03-22T10:38:49;97681.84;;;17.19;54.81
19751;BME280;4663;49.120;9.730;2023-03-22T10:41:17;97637.22;;;16.66;51.31
19751;BME280;4663;49.120;9.730;2023-03-22T10:43:44;97616.78;;;16.33;50.56
19751;BME280;4663;49.120;9.730;2023-03-22T10:46:18;97651.19;;;16.69;53.28
19751;BME280;4663;49.120;9.730;2023-03-22T10:48:47;97643.28;;;16.92;51.93
19751;BME280;4663;49.120;9.730;2023-03-22T10:51:21;97633.78;;;16.59;51.81
19751;BME280;4663;49.120;9.730;2023-03-22T10:53:49;97606.63;;;15.97;50.45
19751;BME280;4663;49.120;9.730;2023-03-22T10:56:17;97633.75;;;16.35;51.57
19751;BME280;4663;49.120;9.730;2023-03-22T10:58:45;97631.78;;;16.78;51.33
19751;BME280;4663;49.120;9.730;2023-03-22T11:01:13;97607.25;;;16.11;50.86
19751;BME280;4663;49.120;9.730;2023-03-22T11:03:49;97634.56;;;16.35;52.21
19751;BME280;4663;49.120;9.730;2023-03-22T11:06:19;97630.00;;;16.60;51.55
19751;BME280;4663;49.120;9.730;2023-03-22T11:09:21;97628.09;;;16.72;51.57
19751;BME280;4663;49.120;9.730;2023-03-22T11:12:00;97598.00;;;16.43;49.81
19751;BME280;4663;49.120;9.730;2023-03-22T11:14:30;97625.72;;;16.52;51.58
19751;BME280;4663;49.120;9.730;2023-03-22T11:19:38;97614.78;;;15.97;50.94
19751;BME280;4663;49.120;9.730;2023-03-22T11:22:07;97617.66;;;16.45;51.02
19751;BME280;4663;49.120;9.730;2023-03-22T11:24:40;97638.84;;;16.55;51.83
19751;BME280;4663;49.120;9.730;2023-03-22T11:29:46;97608.06;;;15.50;51.67
19751;BME280;4663;49.120;9.730;2023-03-22T11:32:38;97613.66;;;16.72;51.54
19751;BME280;4663;49.120;9.730;2023-03-22T11:37:45;97601.91;;;16.83;50.25
19751;BME280;4663;49.120;9.730;2023-03-22T11:42:42;97607.63;;;16.58;52.01
19751;BME280;4663;49.120;9.730;2023-03-22T11:45:26;97595.88;;;16.93;49.68
19751;BME280;4663;49.120;9.730;2023-03-22T11:47:52;97607.28;;;16.23;52.01
19751;BME280;4663;49.120;9.730;2023-03-22T11:50:30;97583.31;;;16.44;50.91
19751;BME280;4663;49.120;9.730;2023-03-22T11:53:01;97611.38;;;16.56;52.65
19751;BME280;4663;49.120;9.730;2023-03-22T11:55:29;97594.59;;;16.48;51.07
19751;BME280;4663;49.120;9.730;2023-03-22T11:57:56;97583.13;;;16.15;50.63
19751;BME280;4663;49.120;9.730;2023-03-22T12:00:25;97554.38;;;15.76;50.29
19751;BME280;4663;49.120;9.730;2023-03-22T12:03:13;97611.97;;;16.35;52.79
19751;BME280;4663;49.120;9.730;2023-03-22T12:05:42;97575.81;;;15.85;51.90
19751;BME280;4663;49.120;9.730;2023-03-22T12:08:15;97570.91;;;15.63;51.60
19751;BME280;4663;49.120;9.730;2023-03-22T12:10:46;97577.97;;;15.83;51.61
19751;BME280;4663;49.120;9.730;2023-03-22T12:13:19;97564.03;;;15.60;51.93
19751;BME280;4663;49.120;9.730;2023-03-22T12:15:50;97589.00;;;16.00;53.21
19751;BME280;4663;49.120;9.730;2023-03-22T12:18:23;97549.06;;;15.82;51.28
19751;BME280;4663;49.120;9.730;2023-03-22T12:20:58;97571.16;;;15.73;52.61
19751;BME280;4663;49.120;9.730;2023-03-22T12:23:27;97555.19;;;15.46;52.54
19751;BME280;4663;49.120;9.730;2023-03-22T12:26:13;97545.47;;;15.69;51.53
19751;BME280;4663;49.120;9.730;2023-03-22T12:28:49;97548.59;;;15.85;51.79
19751;BME280;4663;49.120;9.730;2023-03-22T12:31:20;97557.41;;;16.53;52.11
19751;BME280;4663;49.120;9.730;2023-03-22T12:33:48;97556.78;;;16.51;51.94
19751;BME280;4663;49.120;9.730;2023-03-22T12:36:18;97543.53;;;16.67;51.41
19751;BME280;4663;49.120;9.730;2023-03-22T12:38:55;97534.53;;;16.54;50.88
19751;BME280;4663;49.120;9.730;2023-03-22T12:41:30;97539.75;;;16.44;51.35
19751;BME280;4663;49.120;9.730;2023-03-22T12:44:00;97539.34;;;15.74;51.99
19751;BME280;4663;49.120;9.730;2023-03-22T12:46:32;97534.69;;;16.05;51.96
19751;BME280;4663;49.120;9.730;2023-03-22T12:54:57;97530.75;;;15.89;52.28
19751;BME280;4663;49.120;9.730;2023-03-22T12:57:25;97515.97;;;15.85;51.26
19751;BME280;4663;49.120;9.730;2023-03-22T12:59:52;97534.19;;;15.96;52.64
19751;BME280;4663;49.120;9.730;2023-03-22T13:02:55;97512.44;;;15.96;51.88
19751;BME280;4663;49.120;9.730;2023-03-22T13:05:26;97506.41;;;15.94;51.43
19751;BME280;4663;49.120;9.730;2023-03-22T13:07:53;97509.25;;;16.11;51.47
19751;BME280;4663;49.120;9.730;2023-03-22T13:21:27;97515.78;;;15.68;53.02
19751;BME280;4663;49.120;9.730;2023-03-22T13:26:31;97505.81;;;15.92;52.88
19751;BME280;4663;49.120;9.730;2023-03-22T13:28:59;97512.41;;;16.39;52.24
19751;BME280;4663;49.120;9.730;2023-03-22T13:31:44;97484.16;;;16.21;51.87
19751;BME280;4663;49.120;9.730;2023-03-22T13:34:29;97470.69;;;16.26;50.28
19751;BME280;4663;49.120;9.730;2023-03-22T13:36:56;97484.78;;;16.23;50.93
19751;BME280;4663;49.120;9.730;2023-03-22T13:39:23;97468.69;;;16.10;50.10
19751;BME280;4663;49.120;9.730;2023-03-22T13:42:05;97472.22;;;16.22;50.48
19751;BME280;4663;49.120;9.730;2023-03-22T13:44:38;97479.25;;;16.42;50.63
19751;BME280;4663;49.120;9.730;2023-03-22T13:47:07;97459.66;;;15.97;49.32
19751;BME280;4663;49.120;9.730;2023-03-22T13:49:42;97449.59;;;15.86;48.99
19751;BME280;4663;49.120;9.730;2023-03-22T13:52:22;97478.59;;;15.92;51.52
19751;BME280;4663;49.120;9.730;2023-03-22T13:54:48;97459.00;;;15.59;50.28
19751;BME280;4663;49.120;9.730;2023-03-22T13:57:38;97441.38;;;15.62;49.12
19751;BME280;4663;49.120;9.730;2023-03-22T14:00:20;97457.97;;;15.60;51.01
19751;BME280;4663;49.120;9.730;2023-03-22T14:03:04;97457.03;;;15.05;51.15
19751;BME280;4663;49.120;9.730;2023-03-22T14:05:34;97430.03;;;14.73;49.87
19751;BME280;4663;49.120;9.730;2023-03-22T14:08:00;97451.25;;;14.83;51.58
19751;BME280;4663;49.120;9.730;2023-03-22T14:10:44;97434.25;;;15.18;50.05
19751;BME280;4663;49.120;9.730;2023-03-22T14:16:03;97445.81;;;15.44;50.63
19751;BME280;4663;49.120;9.730;2023-03-22T14:18:32;97431.22;;;15.26;50.55
19751;BME280;4663;49.120;9.730;2023-03-22T14:21:11;97449.31;;;15.33;52.21
19751;BME280;4663;49.120;9.730;2023-03-22T14:24:04;97418.56;;;14.89;50.17
19751;BME280;4663;49.120;9.730;2023-03-22T14:26:39;97415.72;;;15.15;50.34
19751;BME280;4663;49.120;9.730;2023-03-22T14:29:19;97428.16;;;15.04;51.25
19751;BME280;4663;49.120;9.730;2023-03-22T14:31:53;97428.69;;;15.13;51.48
19751;BME280;4663;49.120;9.730;2023-03-22T14:34:22;97408.28;;;14.73;50.60
19751;BME280;4663;49.120;9.730;2023-03-22T14:36:48;97429.97;;;15.10;51.08
19751;BME280;4663;49.120;9.730;2023-03-22T14:39:21;97421.19;;;14.96;50.84
19751;BME280;4663;49.120;9.730;2023-03-22T14:42:05;97394.34;;;14.88;48.96
19751;BME280;4663;49.120;9.730;2023-03-22T14:44:54;97430.00;;;14.92;51.92